createdAt,value
2022-09-28T00:01:25.887Z,8.20
2022-09-28T00:03:59.748Z,9.90
2022-09-28T00:06:30.738Z,10.20
2022-09-28T00:08:58.352Z,7.85
2022-09-28T00:11:29.224Z,5.95
2022-09-28T00:14:03.717Z,8.05
2022-09-28T00:19:04.942Z,10.18
2022-09-28T00:21:35.231Z,11.65
2022-09-28T00:24:15.624Z,7.00
2022-09-28T00:26:47.209Z,7.13
2022-09-28T00:29:34.374Z,7.50
2022-09-28T00:32:06.655Z,7.25
2022-09-28T00:34:37.611Z,6.78
2022-09-28T00:37:06.515Z,7.15
2022-09-28T00:39:35.617Z,8.95
2022-09-28T00:42:10.922Z,8.32
2022-09-28T00:44:54.424Z,6.78
2022-09-28T00:47:49.483Z,7.05
2022-09-28T00:50:26.803Z,9.55
2022-09-28T00:52:57.276Z,7.65
2022-09-28T00:56:00.983Z,8.88
2022-09-28T00:58:33.510Z,7.00
2022-09-28T01:01:00.900Z,9.40
2022-09-28T01:03:29.424Z,8.45
2022-09-28T01:06:02.234Z,9.23
2022-09-28T01:08:32.852Z,11.85
2022-09-28T01:11:00.452Z,12.13
2022-09-28T01:13:31.485Z,10.48
2022-09-28T01:16:23.687Z,7.68
2022-09-28T01:19:39.080Z,8.82
2022-09-28T01:22:35.775Z,9.82
2022-09-28T01:25:25.023Z,10.55
2022-09-28T01:28:25.704Z,8.15
2022-09-28T01:31:15.049Z,10.35
2022-09-28T01:33:48.096Z,12.07
2022-09-28T01:36:31.359Z,9.95
2022-09-28T01:39:24.309Z,12.95
2022-09-28T01:41:57.699Z,10.82
2022-09-28T01:44:30.747Z,11.38
2022-09-28T01:47:04.232Z,12.82
2022-09-28T01:49:42.256Z,11.40
2022-09-28T01:52:41.558Z,13.18
2022-09-28T01:55:29.732Z,14.55
2022-09-28T01:58:11.627Z,12.38
2022-09-28T02:00:46.766Z,13.32
2022-09-28T02:03:29.712Z,18.08
2022-09-28T02:08:54.032Z,13.45
2022-09-28T02:11:25.996Z,15.43
2022-09-28T02:14:01.704Z,16.95
2022-09-28T02:16:41.020Z,13.90
2022-09-28T02:19:16.018Z,14.35
2022-09-28T02:22:07.903Z,14.02
2022-09-28T02:24:54.467Z,18.60
2022-09-28T02:27:41.235Z,14.98
2022-09-28T02:30:09.763Z,16.58
2022-09-28T02:32:42.562Z,17.95
2022-09-28T02:35:15.030Z,15.82
2022-09-28T02:37:42.374Z,16.27
2022-09-28T02:40:23.271Z,16.88
2022-09-28T02:43:23.857Z,20.42
2022-09-28T02:46:33.977Z,22.60
2022-09-28T02:49:30.058Z,18.73
2022-09-28T02:52:35.287Z,19.38
2022-09-28T02:55:30.543Z,21.15
2022-09-28T02:58:13.966Z,22.73
2022-09-28T03:01:09.018Z,19.10
2022-09-28T03:06:39.512Z,16.95
2022-09-28T03:09:28.984Z,16.67
2022-09-28T03:12:03.598Z,16.60
2022-09-28T03:14:30.647Z,15.95
2022-09-28T03:16:58.226Z,16.67
2022-09-28T03:19:32.655Z,18.77
2022-09-28T03:22:01.130Z,17.52
2022-09-28T03:24:28.592Z,14.52
2022-09-28T03:26:55.608Z,14.75
2022-09-28T03:29:23.432Z,13.85
2022-09-28T03:31:57.382Z,14.88
2022-09-28T03:34:24.423Z,15.60
2022-09-28T03:36:52.086Z,15.45
2022-09-28T03:39:19.426Z,16.77
2022-09-28T03:41:46.475Z,15.20
2022-09-28T03:44:13.856Z,15.55
2022-09-28T03:46:41.322Z,18.27
2022-09-28T03:49:10.102Z,15.77
2022-09-28T03:51:37.172Z,15.80
2022-09-28T03:54:05.068Z,14.75
2022-09-28T03:56:32.290Z,16.60
2022-09-28T03:58:59.508Z,18.17
2022-09-28T04:01:27.212Z,16.75
2022-09-28T04:03:56.049Z,18.75
2022-09-28T04:06:25.890Z,20.30
2022-09-28T04:08:53.435Z,17.90
2022-09-28T04:11:20.396Z,18.67
2022-09-28T04:13:50.586Z,17.58
2022-09-28T04:16:18.603Z,18.48
2022-09-28T04:18:55.301Z,16.33
2022-09-28T04:21:45.669Z,18.80
2022-09-28T04:24:14.549Z,16.08
2022-09-28T04:26:41.603Z,17.25
2022-09-28T04:29:16.997Z,20.63
2022-09-28T04:31:53.397Z,16.27
2022-09-28T04:34:23.824Z,16.00
2022-09-28T04:36:51.153Z,18.83
2022-09-28T04:39:21.676Z,17.42
2022-09-28T04:41:51.888Z,17.83
2022-09-28T04:44:19.256Z,13.20
2022-09-28T04:46:47.825Z,15.30
2022-09-28T04:49:37.018Z,16.20
2022-09-28T04:52:09.344Z,15.13
2022-09-28T04:54:36.383Z,16.48
2022-09-28T04:57:04.926Z,11.60
2022-09-28T04:59:33.437Z,14.05
2022-09-28T05:02:00.781Z,16.38
2022-09-28T05:04:46.478Z,12.90
2022-09-28T05:07:37.587Z,12.48
2022-09-28T05:10:07.181Z,12.07
2022-09-28T05:12:34.767Z,11.55
2022-09-28T05:15:01.814Z,12.20
2022-09-28T05:17:28.966Z,12.88
2022-09-28T05:20:10.049Z,14.93
2022-09-28T05:22:38.094Z,14.73
2022-09-28T05:25:08.798Z,12.50
2022-09-28T05:27:48.409Z,11.75
2022-09-28T05:30:36.133Z,14.60
2022-09-28T05:33:28.027Z,14.30
2022-09-28T05:36:11.728Z,14.85
2022-09-28T05:38:38.864Z,13.13
2022-09-28T05:41:06.941Z,14.88
2022-09-28T05:43:34.499Z,9.73
2022-09-28T05:46:06.430Z,12.27
2022-09-28T05:48:38.654Z,12.25
2022-09-28T05:51:06.701Z,12.50
2022-09-28T05:53:33.629Z,11.88
2022-09-28T05:56:02.253Z,12.70
2022-09-28T05:58:31.757Z,11.95
2022-09-28T06:01:00.842Z,11.88
2022-09-28T06:03:28.925Z,13.85
2022-09-28T06:05:55.945Z,12.38
2022-09-28T06:08:24.147Z,10.52
2022-09-28T06:13:29.399Z,13.52
2022-09-28T06:15:56.487Z,10.40
2022-09-28T06:18:23.803Z,11.25
2022-09-28T06:21:19.004Z,9.45
2022-09-28T06:23:49.231Z,11.27
2022-09-28T06:26:18.050Z,11.02
2022-09-28T06:28:45.922Z,9.98
2022-09-28T06:31:13.256Z,8.40
2022-09-28T06:33:45.309Z,9.80
2022-09-28T06:36:13.342Z,7.65
2022-09-28T06:38:40.347Z,7.57
2022-09-28T06:41:07.417Z,9.85
2022-09-28T06:43:35.124Z,11.13
2022-09-28T06:46:20.924Z,7.22
2022-09-28T06:48:51.291Z,8.80
2022-09-28T06:51:26.580Z,6.35
2022-09-28T06:53:56.537Z,6.22
2022-09-28T06:56:37.230Z,10.02
2022-09-28T06:59:05.417Z,9.93
2022-09-28T07:01:33.526Z,7.43
2022-09-28T07:04:26.654Z,5.25
2022-09-28T07:06:54.215Z,8.00
2022-09-28T07:09:44.951Z,5.53
2022-09-28T07:12:41.737Z,5.40
2022-09-28T07:15:25.381Z,3.75
2022-09-28T07:18:02.427Z,3.47
2022-09-28T07:20:46.503Z,4.55
2022-09-28T07:23:19.945Z,5.40
2022-09-28T07:26:08.657Z,5.07
2022-09-28T07:29:02.447Z,5.40
2022-09-28T07:31:54.741Z,5.32
2022-09-28T07:34:44.483Z,4.70
2022-09-28T07:37:18.829Z,5.97
2022-09-28T07:40:05.155Z,3.20
2022-09-28T07:42:36.387Z,3.28
2022-09-28T07:45:04.547Z,6.25
2022-09-28T07:47:35.197Z,3.20
2022-09-28T07:50:18.068Z,9.57
2022-09-28T07:53:05.411Z,2.83
2022-09-28T07:55:56.949Z,6.68
2022-09-28T07:58:37.355Z,4.82
2022-09-28T08:01:39.248Z,3.95
2022-09-28T08:04:09.325Z,5.40
2022-09-28T08:06:37.264Z,4.88
2022-09-28T08:09:06.123Z,6.80
2022-09-28T08:12:05.567Z,2.75
2022-09-28T08:14:46.964Z,2.70
2022-09-28T08:17:29.192Z,2.15
2022-09-28T08:20:17.876Z,6.63
2022-09-28T08:22:45.300Z,5.72
2022-09-28T08:25:13.763Z,3.67
2022-09-28T08:27:41.068Z,4.03
2022-09-28T08:30:09.143Z,2.40
2022-09-28T08:33:02.196Z,4.38
2022-09-28T08:35:46.873Z,1.90
2022-09-28T08:38:18.346Z,1.90
2022-09-28T08:41:23.508Z,3.83
2022-09-28T08:44:25.930Z,1.88
2022-09-28T08:47:38.525Z,4.78
2022-09-28T08:50:33.840Z,2.17
2022-09-28T08:53:41.682Z,3.30
2022-09-28T08:56:42.992Z,1.40
2022-09-28T08:59:22.685Z,1.60
2022-09-28T09:02:03.560Z,3.47
2022-09-28T09:04:33.892Z,2.78
2022-09-28T09:07:54.616Z,2.38
2022-09-28T09:11:00.403Z,3.55
2022-09-28T09:14:08.929Z,3.67
2022-09-28T09:17:15.202Z,2.13
2022-09-28T09:20:42.354Z,5.60
2022-09-28T09:23:43.129Z,7.03
2022-09-28T09:26:32.264Z,5.05
2022-09-28T09:29:12.289Z,3.53
2022-09-28T09:32:12.988Z,3.35
2022-09-28T09:35:31.849Z,2.75
2022-09-28T09:38:36.131Z,3.45
2022-09-28T09:41:58.841Z,5.65
2022-09-28T09:45:26.595Z,2.78
2022-09-28T09:48:20.617Z,3.92
2022-09-28T09:50:55.568Z,1.70
2022-09-28T09:54:00.321Z,2.63
2022-09-28T09:56:47.692Z,1.83
2022-09-28T09:59:27.721Z,9.95
2022-09-28T10:02:29.982Z,10.88
2022-09-28T10:05:25.479Z,2.72
2022-09-28T10:08:04.760Z,4.07
2022-09-28T10:10:38.726Z,3.45
2022-09-28T10:13:11.545Z,3.13
2022-09-28T10:15:42.085Z,3.60
2022-09-28T10:18:21.588Z,3.20
2022-09-28T10:21:17.651Z,1.80
2022-09-28T10:24:33.707Z,3.58
2022-09-28T10:27:15.809Z,5.63
2022-09-28T10:29:54.329Z,1.67
2022-09-28T10:32:28.070Z,2.03
2022-09-28T10:35:18.550Z,1.67
2022-09-28T10:37:57.798Z,2.50
2022-09-28T10:40:47.284Z,1.52
2022-09-28T10:43:25.124Z,1.55
2022-09-28T10:46:04.951Z,1.10
2022-09-28T10:48:55.763Z,2.60
2022-09-28T10:51:51.810Z,6.57
2022-09-28T10:54:30.563Z,10.63
2022-09-28T10:57:01.041Z,2.95
2022-09-28T10:59:46.791Z,4.40
2022-09-28T11:02:42.934Z,3.58
2022-09-28T11:05:29.954Z,1.75
2022-09-28T11:08:08.085Z,1.42
2022-09-28T11:10:44.662Z,1.23
2022-09-28T11:13:14.373Z,1.52
2022-09-28T11:15:46.408Z,3.03
2022-09-28T11:18:32.278Z,3.67
2022-09-28T11:21:22.900Z,4.30
2022-09-28T11:24:18.858Z,2.22
2022-09-28T11:26:52.547Z,6.32
2022-09-28T11:29:41.875Z,9.65
2022-09-28T11:32:23.819Z,2.70
2022-09-28T11:35:28.072Z,3.22
2022-09-28T11:38:11.505Z,7.35
2022-09-28T11:42:05.738Z,5.10
2022-09-28T11:44:44.797Z,4.63
2022-09-28T11:47:46.463Z,4.30
2022-09-28T11:50:48.595Z,2.30
2022-09-28T11:53:30.249Z,0.85
2022-09-28T11:56:17.439Z,1.92
2022-09-28T12:01:53.441Z,1.70
2022-09-28T12:04:46.639Z,1.13
2022-09-28T12:07:38.409Z,2.78
2022-09-28T12:10:26.531Z,1.98
2022-09-28T12:13:11.877Z,3.83
2022-09-28T12:16:53.020Z,3.08
2022-09-28T12:19:34.708Z,1.77
2022-09-28T12:22:24.222Z,1.35
2022-09-28T12:24:57.225Z,2.90
2022-09-28T12:27:38.583Z,1.95
2022-09-28T12:30:22.372Z,3.65
2022-09-28T12:33:17.842Z,1.17
2022-09-28T12:36:13.411Z,3.70
2022-09-28T12:39:23.956Z,1.85
2022-09-28T12:42:33.448Z,1.35
2022-09-28T12:45:53.169Z,0.90
2022-09-28T12:48:36.357Z,8.35
2022-09-28T12:51:38.360Z,3.92
2022-09-28T12:54:22.606Z,2.78
2022-09-28T12:57:15.483Z,8.40
2022-09-28T13:00:22.242Z,1.20
2022-09-28T13:03:12.239Z,1.10
2022-09-28T13:06:35.772Z,1.20
2022-09-28T13:09:22.649Z,1.38
2022-09-28T13:12:30.255Z,1.00
2022-09-28T13:15:08.683Z,6.70
2022-09-28T13:17:46.565Z,6.15
2022-09-28T13:20:37.900Z,1.15
2022-09-28T13:23:44.799Z,2.42
2022-09-28T13:26:28.239Z,3.65
2022-09-28T13:29:04.792Z,4.65
2022-09-28T13:31:37.149Z,1.50
2022-09-28T13:34:18.150Z,4.22
2022-09-28T13:36:48.180Z,6.57
2022-09-28T13:39:46.350Z,6.45
2022-09-28T13:42:40.213Z,1.92
2022-09-28T13:45:13.730Z,1.35
2022-09-28T13:48:11.601Z,3.40
2022-09-28T13:51:12.216Z,2.72
2022-09-28T13:54:22.841Z,0.90
2022-09-28T13:57:16.006Z,1.65
2022-09-28T14:00:07.479Z,1.05
2022-09-28T14:02:48.172Z,8.88
2022-09-28T14:05:25.261Z,2.08
2022-09-28T14:08:23.436Z,3.42
2022-09-28T14:11:26.739Z,2.67
2022-09-28T14:14:04.758Z,3.78
2022-09-28T14:16:36.944Z,1.42
2022-09-28T14:19:24.463Z,1.17
2022-09-28T14:22:16.895Z,4.07
2022-09-28T14:25:21.112Z,0.52
2022-09-28T14:28:25.097Z,2.35
2022-09-28T14:30:56.799Z,1.08
2022-09-28T14:33:31.924Z,0.30
2022-09-28T14:36:06.854Z,1.00
2022-09-28T14:39:18.769Z,0.85
2022-09-28T14:41:46.406Z,0.20
2022-09-28T14:44:18.683Z,0.60
2022-09-28T14:46:48.112Z,0.40
2022-09-28T14:49:19.228Z,1.95
2022-09-28T14:51:55.919Z,2.03
2022-09-28T14:54:27.237Z,1.48
2022-09-28T14:56:54.340Z,1.23
2022-09-28T14:59:24.843Z,5.85
2022-09-28T15:02:08.162Z,2.65
2022-09-28T15:04:43.543Z,1.75
2022-09-28T15:07:21.451Z,2.13
2022-09-28T15:09:55.554Z,4.32
2022-09-28T15:12:31.052Z,2.05
2022-09-28T15:15:18.823Z,1.52
2022-09-28T15:17:57.567Z,4.10
2022-09-28T15:20:37.032Z,1.90
2022-09-28T15:23:05.180Z,2.35
2022-09-28T15:25:33.947Z,0.98
2022-09-28T15:28:17.940Z,1.20
2022-09-28T15:30:51.376Z,2.70
2022-09-28T15:36:32.068Z,1.48
2022-09-28T15:39:16.123Z,3.88
2022-09-28T15:41:45.960Z,2.08
2022-09-28T15:44:12.930Z,2.72
2022-09-28T15:46:44.279Z,2.47
2022-09-28T15:49:41.215Z,2.85
2022-09-28T15:52:43.376Z,1.92
2022-09-28T15:55:37.818Z,1.45
2022-09-28T15:58:17.407Z,1.98
2022-09-28T16:01:12.003Z,1.77
2022-09-28T16:03:39.438Z,1.25
2022-09-28T16:06:10.210Z,2.78
2022-09-28T16:08:44.491Z,3.65
2022-09-28T16:11:39.193Z,1.25
2022-09-28T16:14:18.301Z,1.70
2022-09-28T16:16:52.236Z,2.40
2022-09-28T16:19:36.607Z,2.85
2022-09-28T16:22:24.471Z,2.85
2022-09-28T16:25:01.134Z,1.45
2022-09-28T16:27:44.412Z,1.90
2022-09-28T16:31:02.987Z,2.03
2022-09-28T16:33:52.471Z,2.80
2022-09-28T16:36:21.994Z,2.10
2022-09-28T16:38:49.960Z,2.17
2022-09-28T16:41:23.438Z,2.42
2022-09-28T16:44:02.078Z,2.42
2022-09-28T16:46:37.323Z,3.28
2022-09-28T16:49:07.078Z,2.17
2022-09-28T16:51:34.285Z,3.00
2022-09-28T16:54:35.149Z,0.50
2022-09-28T16:57:05.065Z,4.30
2022-09-28T16:59:32.508Z,0.88
2022-09-28T17:01:59.664Z,0.80
2022-09-28T17:04:26.904Z,2.65
2022-09-28T17:06:56.237Z,1.45
2022-09-28T17:09:23.718Z,6.55
2022-09-28T17:11:56.956Z,2.15
2022-09-28T17:14:24.266Z,1.15
2022-09-28T17:17:08.223Z,1.27
2022-09-28T17:19:36.817Z,2.35
2022-09-28T17:22:03.895Z,2.47
2022-09-28T17:24:30.890Z,7.40
2022-09-28T17:27:00.749Z,5.63
2022-09-28T17:29:27.931Z,10.13
2022-09-28T17:31:55.271Z,9.48
2022-09-28T17:34:24.619Z,9.73
2022-09-28T17:36:51.871Z,13.90
2022-09-28T17:39:19.335Z,9.00
2022-09-28T17:41:46.460Z,6.53
2022-09-28T17:44:16.725Z,4.88
2022-09-28T17:46:48.472Z,4.55
2022-09-28T17:49:16.827Z,3.10
2022-09-28T17:51:44.296Z,2.65
2022-09-28T17:54:12.950Z,3.25
2022-09-28T17:56:40.252Z,2.90
2022-09-28T17:59:14.203Z,4.25
2022-09-28T18:01:41.318Z,3.75
2022-09-28T18:04:23.008Z,2.97
2022-09-28T18:06:54.988Z,3.58
2022-09-28T18:09:25.363Z,2.72
2022-09-28T18:12:04.073Z,3.15
2022-09-28T18:14:31.063Z,4.18
2022-09-28T18:16:58.063Z,3.65
2022-09-28T18:19:28.567Z,3.47
2022-09-28T18:22:01.506Z,5.05
2022-09-28T18:24:29.373Z,4.40
2022-09-28T18:26:56.418Z,5.72
2022-09-28T18:29:23.607Z,4.10
2022-09-28T18:31:50.819Z,3.22
2022-09-28T18:34:18.108Z,5.20
2022-09-28T18:36:45.516Z,5.30
2022-09-28T18:39:12.744Z,7.63
2022-09-28T18:41:39.929Z,6.82
2022-09-28T18:44:06.906Z,6.70
2022-09-28T18:46:36.574Z,7.85
2022-09-28T18:49:04.757Z,7.18
2022-09-28T18:51:32.008Z,6.82
2022-09-28T18:54:00.801Z,10.18
2022-09-28T18:56:27.829Z,10.40
2022-09-28T18:58:54.809Z,10.35
2022-09-28T19:01:30.745Z,10.65
2022-09-28T19:04:07.608Z,12.02
2022-09-28T19:06:40.653Z,11.07
2022-09-28T19:09:08.556Z,12.15
2022-09-28T19:11:36.366Z,14.10
2022-09-28T19:14:03.655Z,12.77
2022-09-28T19:16:34.042Z,14.05
2022-09-28T19:19:02.694Z,18.83
2022-09-28T19:21:31.119Z,16.75
2022-09-28T19:24:01.543Z,16.52
2022-09-28T19:26:30.037Z,16.13
2022-09-28T19:28:58.574Z,16.90
2022-09-28T19:31:27.129Z,13.25
2022-09-28T19:33:54.151Z,13.73
2022-09-28T19:36:24.321Z,11.90
2022-09-28T19:39:02.704Z,11.38
2022-09-28T19:41:44.684Z,12.77
2022-09-28T19:44:27.259Z,13.57
2022-09-28T19:47:06.924Z,12.20
2022-09-28T19:49:37.467Z,16.38
2022-09-28T19:52:14.414Z,13.57
2022-09-28T19:54:57.449Z,13.95
2022-09-28T19:57:30.830Z,13.25
2022-09-28T20:00:02.811Z,9.57
2022-09-28T20:02:35.038Z,12.35
2022-09-28T20:05:03.515Z,8.32
2022-09-28T20:07:32.900Z,7.82
2022-09-28T20:10:00.178Z,12.40
2022-09-28T20:12:29.290Z,10.95
2022-09-28T20:14:56.295Z,12.48
2022-09-28T20:17:23.382Z,8.98
2022-09-28T20:19:51.722Z,8.57
2022-09-28T20:22:19.938Z,8.10
2022-09-28T20:24:47.037Z,8.27
2022-09-28T20:27:14.032Z,9.52
2022-09-28T20:29:43.053Z,7.68
2022-09-28T20:32:11.706Z,9.32
2022-09-28T20:34:38.951Z,8.70
2022-09-28T20:37:05.966Z,8.40
2022-09-28T20:39:34.483Z,9.48
2022-09-28T20:42:01.555Z,8.13
2022-09-28T20:44:28.563Z,10.25
2022-09-28T20:46:56.666Z,10.02
2022-09-28T20:49:23.859Z,9.13
2022-09-28T20:51:51.343Z,7.95
2022-09-28T20:54:18.561Z,9.07
2022-09-28T20:56:48.040Z,10.00
2022-09-28T20:59:15.715Z,9.52
2022-09-28T21:01:42.879Z,8.57
2022-09-28T21:04:10.739Z,9.13
2022-09-28T21:06:41.349Z,9.10
2022-09-28T21:09:10.958Z,10.05
2022-09-28T21:11:39.439Z,9.05
2022-09-28T21:14:09.583Z,10.48
2022-09-28T21:16:37.572Z,9.73
2022-09-28T21:19:04.698Z,12.32
2022-09-28T21:21:32.115Z,11.75
2022-09-28T21:23:59.513Z,11.77
2022-09-28T21:26:29.728Z,14.32
2022-09-28T21:29:03.723Z,13.27
2022-09-28T21:31:45.650Z,13.40
2022-09-28T21:34:19.329Z,10.32
2022-09-28T21:36:54.655Z,14.80
2022-09-28T21:39:22.179Z,13.57
2022-09-28T21:41:49.315Z,10.05
2022-09-28T21:44:16.480Z,10.43
2022-09-28T21:46:43.675Z,12.93
2022-09-28T21:49:12.607Z,11.07
2022-09-28T21:51:39.773Z,10.65
2022-09-28T21:54:06.891Z,14.00
2022-09-28T21:56:34.060Z,14.73
2022-09-28T21:59:01.301Z,12.73
2022-09-28T22:01:29.058Z,14.77
2022-09-28T22:03:58.359Z,14.80
2022-09-28T22:06:28.133Z,11.43
2022-09-28T22:08:59.189Z,14.07
2022-09-28T22:11:28.808Z,12.85
2022-09-28T22:13:59.268Z,11.98
2022-09-28T22:16:30.402Z,12.80
2022-09-28T22:18:59.427Z,12.95
2022-09-28T22:21:31.789Z,11.20
2022-09-28T22:24:02.000Z,17.08
2022-09-28T22:26:31.953Z,13.70
2022-09-28T22:29:03.514Z,13.55
2022-09-28T22:31:34.860Z,14.50
2022-09-28T22:34:03.004Z,14.82
2022-09-28T22:36:31.720Z,15.55
2022-09-28T22:38:59.691Z,12.43
2022-09-28T22:41:27.372Z,11.20
2022-09-28T22:43:55.118Z,15.40
2022-09-28T22:46:27.488Z,13.07
2022-09-28T22:48:57.904Z,12.35
2022-09-28T22:51:29.965Z,14.68
2022-09-28T22:53:58.229Z,14.70
2022-09-28T22:56:25.671Z,13.80
2022-09-28T22:58:53.151Z,14.95
2022-09-28T23:01:28.423Z,13.95
2022-09-28T23:03:57.656Z,10.70
2022-09-28T23:06:30.211Z,13.85
2022-09-28T23:08:57.712Z,13.85
2022-09-28T23:11:24.911Z,16.67
2022-09-28T23:13:58.582Z,16.25
2022-09-28T23:16:26.802Z,14.17
2022-09-28T23:18:55.866Z,13.32
2022-09-28T23:21:25.935Z,19.02
2022-09-28T23:23:57.011Z,13.60
2022-09-28T23:26:28.758Z,13.60
2022-09-28T23:28:56.564Z,15.10
2022-09-28T23:31:30.543Z,17.45
2022-09-28T23:34:04.942Z,14.65
2022-09-28T23:36:32.382Z,16.92
2022-09-28T23:38:59.394Z,16.08
2022-09-28T23:41:26.441Z,16.95
2022-09-28T23:43:53.385Z,18.70
2022-09-28T23:46:21.148Z,17.65
2022-09-28T23:48:49.427Z,19.00
2022-09-28T23:51:16.865Z,17.50
2022-09-28T23:53:44.192Z,17.52
2022-09-28T23:56:11.996Z,18.42
2022-09-28T23:58:38.945Z,14.15
